Terminal Aerodrome Forecast
Issued by NWS

Home | Current Version | Previous Version | Text Only | Print | Product List | Glossary On
Versions: 1 2 3 4 5 6 7 8 9 10 11 12 13 14 15 16
000
FTUS41 KGYX 032320
TAFLEB
TAF
KLEB 032320Z 0400/0424 00000KT P6SM BKN100
     FM041500 22008KT P6SM BKN250
     FM041800 21012G19KT P6SM BKN250
     FM042100 21011KT P6SM OVC100=

USA.gov is the U.S. government's official web portal to all federal, state and local government web resources and services.